EIN602 EIDW-EHAM
Flight info
| Callsign | EIN602 |
|---|---|
| Flight time | N/A |
| Altitude | 37000 |
| Route | ENDEQ1E ENDEQ Q36 ALAVA Z195 MALUD UL975 WAL M16 DOLAS L603 LAMSO |
| Aircraft | A321/M-SDE3FGHIRWY/LB1 |
Departure
| Time | N/A |
|---|---|
| Airport | Dublin Airport (EIDW) |
Arrival
| Time | 2026-05-07 16:02 |
|---|---|
| Airport | Amsterdam Airport Schiphol (EHAM) |
| Time | Latitude | Longitude | Altitude | Speed | Heading |
|---|---|---|---|---|---|
| 2026-05-07 15:30 | 53.11024 | -0.04294 | 37076 ft | 449 kts | 103° |
| 2026-05-07 15:30 | 53.10400 | 0.00822 | 37058 ft | 451 kts | 103° |
| 2026-05-07 15:30 | 53.09141 | 0.11104 | 37075 ft | 453 kts | 103° |
| 2026-05-07 15:31 | 53.07872 | 0.21399 | 37092 ft | 454 kts | 103° |
| 2026-05-07 15:31 | 53.06596 | 0.31680 | 37097 ft | 454 kts | 103° |
| 2026-05-07 15:32 | 53.05321 | 0.41927 | 37099 ft | 454 kts | 103° |
| 2026-05-07 15:32 | 53.04025 | 0.52219 | 37095 ft | 454 kts | 103° |
| 2026-05-07 15:33 | 53.02719 | 0.62495 | 37101 ft | 454 kts | 104° |
| 2026-05-07 15:33 | 53.01405 | 0.72715 | 37102 ft | 454 kts | 103° |
| 2026-05-07 15:34 | 53.00084 | 0.82979 | 37102 ft | 454 kts | 103° |
| 2026-05-07 15:34 | 52.98765 | 0.93188 | 37099 ft | 455 kts | 103° |
| 2026-05-07 15:35 | 52.97431 | 1.03468 | 37104 ft | 455 kts | 103° |
| 2026-05-07 15:35 | 52.96223 | 1.13790 | 37107 ft | 456 kts | 101° |
| 2026-05-07 15:36 | 52.95276 | 1.22407 | 37110 ft | 456 kts | 102° |
| 2026-05-07 15:36 | 52.94100 | 1.32749 | 37113 ft | 456 kts | 102° |
| 2026-05-07 15:37 | 52.92882 | 1.43059 | 37122 ft | 455 kts | 103° |
| 2026-05-07 15:37 | 52.91650 | 1.53359 | 37113 ft | 455 kts | 102° |
| 2026-05-07 15:38 | 52.90583 | 1.62302 | 37124 ft | 456 kts | 103° |
| 2026-05-07 15:38 | 52.89361 | 1.72544 | 37126 ft | 456 kts | 102° |
| 2026-05-07 15:39 | 52.88115 | 1.82840 | 37125 ft | 456 kts | 103° |
| 2026-05-07 15:39 | 52.86853 | 1.93131 | 37129 ft | 456 kts | 103° |
| 2026-05-07 15:40 | 52.85575 | 2.03449 | 37051 ft | 456 kts | 103° |
| 2026-05-07 15:40 | 52.84937 | 2.08580 | 36787 ft | 455 kts | 102° |
| 2026-05-07 15:40 | 52.84310 | 2.13634 | 36529 ft | 453 kts | 103° |
| 2026-05-07 15:41 | 52.83677 | 2.18740 | 36268 ft | 452 kts | 102° |
| 2026-05-07 15:41 | 52.83046 | 2.23814 | 36024 ft | 450 kts | 102° |
| 2026-05-07 15:41 | 52.82410 | 2.28886 | 35770 ft | 449 kts | 102° |
| 2026-05-07 15:41 | 52.81772 | 2.33928 | 35521 ft | 448 kts | 102° |
| 2026-05-07 15:42 | 52.81132 | 2.38975 | 35269 ft | 446 kts | 102° |
| 2026-05-07 15:42 | 52.80493 | 2.43994 | 34476 ft | 448 kts | 102° |
| 2026-05-07 15:42 | 52.79849 | 2.49042 | 33617 ft | 446 kts | 102° |
| 2026-05-07 15:42 | 52.79206 | 2.54072 | 32577 ft | 448 kts | 102° |
| 2026-05-07 15:43 | 52.78563 | 2.59098 | 31675 ft | 446 kts | 102° |
| 2026-05-07 15:43 | 52.77920 | 2.64101 | 30758 ft | 445 kts | 102° |
| 2026-05-07 15:43 | 52.77271 | 2.69114 | 29639 ft | 448 kts | 102° |
| 2026-05-07 15:43 | 52.76613 | 2.74148 | 28595 ft | 447 kts | 102° |
| 2026-05-07 15:44 | 52.75962 | 2.79104 | 27558 ft | 447 kts | 102° |
| 2026-05-07 15:44 | 52.75300 | 2.84152 | 26318 ft | 451 kts | 102° |
| 2026-05-07 15:44 | 52.74630 | 2.89260 | 25144 ft | 455 kts | 103° |
| 2026-05-07 15:44 | 52.73954 | 2.94386 | 24006 ft | 458 kts | 104° |
| 2026-05-07 15:45 | 52.73018 | 2.99360 | 23032 ft | 456 kts | 112° |
| 2026-05-07 15:45 | 52.71659 | 3.04064 | 22370 ft | 457 kts | 120° |
| 2026-05-07 15:45 | 52.70059 | 3.08629 | 21673 ft | 460 kts | 121° |
| 2026-05-07 15:45 | 52.68464 | 3.13185 | 21006 ft | 457 kts | 121° |
| 2026-05-07 15:46 | 52.65296 | 3.22233 | 20128 ft | 451 kts | 121° |
| 2026-05-07 15:46 | 52.63724 | 3.26702 | 20109 ft | 451 kts | 121° |
| 2026-05-07 15:46 | 52.62166 | 3.31115 | 20105 ft | 452 kts | 121° |
| 2026-05-07 15:47 | 52.60584 | 3.35583 | 20057 ft | 451 kts | 121° |
| 2026-05-07 15:47 | 52.59119 | 3.40214 | 19595 ft | 449 kts | 113° |
| 2026-05-07 15:47 | 52.58153 | 3.45083 | 19103 ft | 447 kts | 104° |
| 2026-05-07 15:47 | 52.57587 | 3.50097 | 18623 ft | 445 kts | 101° |
| 2026-05-07 15:48 | 52.57029 | 3.55029 | 18118 ft | 442 kts | 101° |
| 2026-05-07 15:48 | 52.56495 | 3.59982 | 17575 ft | 434 kts | 101° |
| 2026-05-07 15:48 | 52.55990 | 3.64796 | 17032 ft | 421 kts | 100° |
| 2026-05-07 15:48 | 52.55508 | 3.69449 | 16468 ft | 404 kts | 100° |
| 2026-05-07 15:49 | 52.55049 | 3.73845 | 15820 ft | 374 kts | 101° |
| 2026-05-07 15:49 | 52.54615 | 3.77928 | 15195 ft | 351 kts | 101° |
| 2026-05-07 15:49 | 52.54204 | 3.81729 | 14589 ft | 332 kts | 101° |
| 2026-05-07 15:49 | 52.53803 | 3.85371 | 13984 ft | 317 kts | 101° |
| 2026-05-07 15:50 | 52.53414 | 3.88896 | 13335 ft | 310 kts | 101° |
| 2026-05-07 15:50 | 52.53029 | 3.92392 | 12660 ft | 310 kts | 101° |
| 2026-05-07 15:50 | 52.52630 | 3.95849 | 12008 ft | 305 kts | 104° |
| 2026-05-07 15:50 | 52.52046 | 3.99126 | 11372 ft | 300 kts | 105° |
| 2026-05-07 15:51 | 52.51580 | 4.02457 | 10746 ft | 299 kts | 103° |
| 2026-05-07 15:51 | 52.51154 | 4.05794 | 10133 ft | 296 kts | 103° |
| 2026-05-07 15:51 | 52.50734 | 4.09094 | 9468 ft | 293 kts | 102° |
| 2026-05-07 15:51 | 52.50319 | 4.12367 | 8795 ft | 292 kts | 103° |
| 2026-05-07 15:52 | 52.49908 | 4.15620 | 8236 ft | 288 kts | 104° |
| 2026-05-07 15:52 | 52.49104 | 4.18520 | 7914 ft | 276 kts | 130° |
| 2026-05-07 15:52 | 52.47679 | 4.20483 | 7509 ft | 271 kts | 150° |
| 2026-05-07 15:52 | 52.46019 | 4.21921 | 7118 ft | 267 kts | 156° |
| 2026-05-07 15:53 | 52.44323 | 4.23129 | 6714 ft | 264 kts | 159° |
| 2026-05-07 15:53 | 52.42628 | 4.24246 | 6332 ft | 261 kts | 159° |
| 2026-05-07 15:53 | 52.40931 | 4.25334 | 5936 ft | 262 kts | 159° |
| 2026-05-07 15:53 | 52.39243 | 4.26412 | 5548 ft | 263 kts | 159° |
| 2026-05-07 15:54 | 52.37538 | 4.27501 | 5158 ft | 262 kts | 159° |
| 2026-05-07 15:54 | 52.35833 | 4.28595 | 4770 ft | 261 kts | 158° |
| 2026-05-07 15:54 | 52.34161 | 4.29672 | 4368 ft | 253 kts | 158° |
| 2026-05-07 15:54 | 52.32554 | 4.30713 | 3979 ft | 241 kts | 157° |
| 2026-05-07 15:55 | 52.31039 | 4.31698 | 3602 ft | 228 kts | 157° |
| 2026-05-07 15:55 | 52.29604 | 4.32630 | 3210 ft | 221 kts | 156° |
| 2026-05-07 15:55 | 52.28202 | 4.33543 | 2818 ft | 212 kts | 156° |
| 2026-05-07 15:55 | 52.26865 | 4.34426 | 2458 ft | 203 kts | 155° |
| 2026-05-07 15:56 | 52.25556 | 4.35290 | 2078 ft | 203 kts | 154° |
| 2026-05-07 15:56 | 52.24301 | 4.36205 | 1997 ft | 190 kts | 153° |
| 2026-05-07 15:56 | 52.23110 | 4.37101 | 2001 ft | 187 kts | 152° |
| 2026-05-07 15:56 | 52.22023 | 4.38199 | 2007 ft | 182 kts | 128° |
| 2026-05-07 15:57 | 52.21542 | 4.40044 | 2011 ft | 178 kts | 97° |
| 2026-05-07 15:57 | 52.21397 | 4.42053 | 2008 ft | 178 kts | 92° |
| 2026-05-07 15:57 | 52.21302 | 4.44074 | 2012 ft | 178 kts | 92° |
| 2026-05-07 15:57 | 52.21208 | 4.46092 | 2016 ft | 179 kts | 92° |
| 2026-05-07 15:58 | 52.21112 | 4.48076 | 2006 ft | 178 kts | 94° |
| 2026-05-07 15:58 | 52.21019 | 4.50126 | 2004 ft | 178 kts | 93° |
| 2026-05-07 15:58 | 52.20965 | 4.52155 | 2006 ft | 179 kts | 83° |
| 2026-05-07 15:58 | 52.21326 | 4.54083 | 2001 ft | 177 kts | 60° |
| 2026-05-07 15:59 | 52.21987 | 4.55797 | 2001 ft | 176 kts | 58° |
| 2026-05-07 15:59 | 52.22640 | 4.57478 | 2004 ft | 179 kts | 58° |
| 2026-05-07 15:59 | 52.23316 | 4.59224 | 1991 ft | 179 kts | 58° |
| 2026-05-07 15:59 | 52.23963 | 4.60896 | 1823 ft | 171 kts | 57° |
| 2026-05-07 16:00 | 52.24584 | 4.62503 | 1610 ft | 165 kts | 57° |
| 2026-05-07 16:00 | 52.25198 | 4.64092 | 1384 ft | 162 kts | 56° |
| 2026-05-07 16:00 | 52.25788 | 4.65621 | 1166 ft | 153 kts | 56° |
| 2026-05-07 16:00 | 52.26335 | 4.67041 | 990 ft | 144 kts | 55° |
| 2026-05-07 16:01 | 52.26851 | 4.68378 | 784 ft | 134 kts | 55° |
| 2026-05-07 16:01 | 52.27334 | 4.69631 | 620 ft | 131 kts | 57° |
| 2026-05-07 16:01 | 52.27838 | 4.70944 | 396 ft | 129 kts | 55° |
| 2026-05-07 16:01 | 52.28330 | 4.72187 | 224 ft | 127 kts | 58° |
| 2026-05-07 16:02 | 52.28790 | 4.73418 | 66 ft | 128 kts | 58° |
| 2026-05-07 16:02 | 52.29109 | 4.74222 | 6 ft | 119 kts | 56° |
| 2026-05-07 16:02 | 52.29564 | 4.75421 | -2 ft | 60 kts | 58° |
| 2026-05-07 16:02 | 52.29714 | 4.75740 | -2 ft | 16 kts | 36° |
| 2026-05-07 16:03 | 52.29805 | 4.75824 | -1 ft | 15 kts | 28° |
| 2026-05-07 16:03 | 52.29895 | 4.75901 | -1 ft | 15 kts | 27° |
| 2026-05-07 16:03 | 52.29984 | 4.75980 | -1 ft | 14 kts | 38° |
| 2026-05-07 16:03 | 52.30041 | 4.76115 | -1 ft | 15 kts | 57° |
| 2026-05-07 16:04 | 52.30099 | 4.76262 | -1 ft | 16 kts | 57° |
| 2026-05-07 16:04 | 52.30159 | 4.76415 | -1 ft | 16 kts | 60° |
| 2026-05-07 16:04 | 52.30218 | 4.76576 | -1 ft | 17 kts | 57° |
| 2026-05-07 16:04 | 52.30288 | 4.76730 | -1 ft | 16 kts | 25° |
| 2026-05-07 16:05 | 52.30351 | 4.76634 | -1 ft | 14 kts | 282° |
| 2026-05-07 16:05 | 52.30420 | 4.76524 | -1 ft | 14 kts | 329° |
| 2026-05-07 16:05 | 52.30481 | 4.76482 | -1 ft | 6 kts | 21° |
| 2026-05-07 16:05 | 52.30499 | 4.76527 | -1 ft | 3 kts | 63° |
| 2026-05-07 16:06 | 52.30506 | 4.76548 | -1 ft | 2 kts | 60° |
| 2026-05-07 16:06 | 52.30507 | 4.76552 | -1 ft | 0 kts | 59° |